Aviation Digital Data Service (ADDS)

Output produced by METARs form (1839 UTC 18 June 2019)
found at http://www.aviationweather.gov/metar/data/
 
EIME 181800Z 22008KT 9999 FEW018 BKN070 17/09 Q1010
TAF EIME 181700Z 1818/1903 23008KT 9999 FEW018 SCT050
       
EIKN 181830Z 26008KT 220V300 9999 SCT024 BKN046 13/09 Q1011 NOSIG
TAF EIKN 181700Z 1818/1918 25010KT 9999 FEW020 BKN040 
     TEMPO 1902/1908 VRB03KT 3000 BR BKN007 
     PROB30 
     TEMPO 1904/1907 0800 FG BKN002 
     TEMPO 1908/1918 BKN012 FEW018CB
       
EICK 181830Z 20007KT 9999 FEW022 SCT060 15/10 Q1011 NOSIG
TAF EICK 181700Z 1818/1918 19010KT 9999 FEW014 SCT030 
     BECMG 1820/1822 33010KT 
     BECMG 1909/1911 29010KT 
     TEMPO 1911/1918 FEW018CB BKN020
       
EIDL 181830Z 24012KT 9999 SCT019 SCT026 14/09 Q1010
TAF EIDL 181700Z 1818/1821 24015KT 9999 FEW014 BKN020
       
EIDW 181830Z 14006KT 100V170 9999 FEW022 SCT048 BKN070 15/11 Q1010 NOSIG
TAF EIDW 181700Z 1818/1918 14010KT 9999 FEW025 SCT040 
     BECMG 1818/1820 VRB03KT 
     BECMG 1821/1823 28007KT 
     BECMG 1909/1911 26012KT 
     TEMPO 1913/1918 FEW020CB BKN025
       
EIKY 181830Z 31006KT 280V340 9999 FEW045 14/09 Q1012
TAF EIKY 181700Z 1818/1821 31007KT 9999 SCT030
       
EINN 181830Z 28010KT 9999 FEW026 BKN050 16/07 Q1011 NOSIG
TAF EINN 181700Z 1818/1918 29007KT 9999 FEW012 SCT030 
     BECMG 1821/1823 VRB03KT 
     BECMG 1909/1911 27012KT 
     TEMPO 1909/1917 5000 SHRA FEW018CB BKN020
       
EISG 181700Z 32010KT CAVOK 14/12 Q1011
TAF EISG 181700Z 1818/1903 29010KT 9999 SCT030
       
EIWF 181830Z 24008KT 210V270 CAVOK ///// Q1011
TAF EIWF 181700Z 1818/1903 24010KT 9999 FEW030